Lakenan, Missouri
Current Conditions -  °F | °C
As of 12:35 PM on Thursday 23 Oct 2014 (Local Time) from KHAE Reporting Station
Overcast Overcast  
Wind Chill: 63°   Ceiling: 5500
Heat Index: 63°   Visibility: 10mi
Dew Point: 45°   Wind: 8mph
Humidity: 52%   Direction: 170°S
Pressure: 30.13"   Gusts: NA
Location:  39.7104°N, 92.0292°W
Report Text: KHAE 231735Z AUTO 17007KT 10SM SCT034 SCT043 OVC055 17/07 A3013 RMK AO2
Loading
Personal Weather Stations






























Interactive Weather Map New forecast layout! Learn more

10-Day Weather Forecast

Advertisements
Track Severe Weather on mobile